Time;durP1;ratioP1;P1;durP2;ratioP2;P2;SDS_P1;SDS_P2;PMS_P1;PMS_P2;Temp;Humidity;BMP_temperature;BMP_pressure;BME280_temperature;BME280_humidity;BME280_pressure;Samples;Min_cycle;Max_cycle;Signal;HPM_P1;HPM_P2
2022/11/01 00:00:55;;;;;;;;;1.00;1.00;;;;;18.75;61.98;100553.09;2120128;27;46262;-73
2022/11/01 00:01:56;;;;;;;;;0.00;0.00;;;;;18.72;61.75;100545.19;2116048;27;46899;-72
2022/11/01 00:02:59;;;;;;;;;0.00;0.00;;;;;18.72;61.98;100552.41;2116705;27;46656;-74
2022/11/01 00:03:59;;;;;;;;;0.50;0.50;;;;;18.69;61.75;100553.44;2112935;27;46531;-73
2022/11/01 00:04:59;;;;;;;;;0.00;0.00;;;;;18.69;61.95;100556.16;2112945;27;46249;-73
2022/11/01 00:06:00;;;;;;;;;0.00;0.00;;;;;18.68;61.61;100556.22;2116718;27;46050;-70
2022/11/01 00:07:01;;;;;;;;;1.00;1.00;;;;;18.67;61.46;100570.59;2123009;27;47271;-73
2022/11/01 00:08:01;;;;;;;;;0.00;0.00;;;;;18.65;61.58;100570.69;2115920;27;46647;-72
2022/11/01 00:09:03;;;;;;;;;0.00;0.00;;;;;18.62;61.11;100570.84;2114925;27;45601;-74
2022/11/01 00:10:04;;;;;;;;;0.00;0.00;;;;;18.61;60.97;100568.25;2114605;27;46546;-73
2022/11/01 00:11:07;;;;;;;;;0.00;0.00;;;;;18.58;60.87;100573.81;2118707;27;46989;-73
2022/11/01 00:12:07;;;;;;;;;1.00;0.50;;;;;18.56;60.62;100573.03;2114561;27;45884;-73
2022/11/01 00:13:07;;;;;;;;;0.00;0.00;;;;;18.52;60.73;100565.13;2122302;27;46318;-72
2022/11/01 00:14:12;;;;;;;;;0.33;0.33;;;;;18.52;60.86;100570.50;2116678;27;46430;-73
2022/11/01 00:15:13;;;;;;;;;1.25;1.25;;;;;18.50;61.03;100572.41;2122781;27;46766;-71
2022/11/01 00:16:15;;;;;;;;;0.00;0.00;;;;;18.49;60.71;100569.81;2119365;27;46273;-72
2022/11/01 00:17:16;;;;;;;;;0.00;0.00;;;;;18.48;60.46;100574.31;2120715;27;46894;-72
2022/11/01 00:18:16;;;;;;;;;1.33;0.33;;;;;18.47;60.78;100583.34;2120944;27;46401;-69
2022/11/01 00:19:17;;;;;;;;;0.33;0.33;;;;;18.46;60.28;100584.28;2117231;27;46318;-73
2022/11/01 00:20:17;;;;;;;;;0.33;0.33;;;;;18.44;60.65;100577.28;2105873;27;44980;-72
2022/11/01 00:21:17;;;;;;;;;1.67;1.00;;;;;18.42;60.31;100579.16;2112668;27;47675;-72
2022/11/01 00:22:18;;;;;;;;;0.00;0.00;;;;;18.39;60.54;100590.09;2118134;27;45878;-73
2022/11/01 00:23:18;;;;;;;;;0.67;0.33;;;;;18.38;60.54;100578.47;2119769;27;46209;-70
2022/11/01 00:24:18;;;;;;;;;0.00;0.00;;;;;18.37;60.70;100575.88;2119981;27;46013;-72
2022/11/01 00:25:19;;;;;;;;;0.33;0.33;;;;;18.37;60.29;100586.63;2121470;27;46143;-71
2022/11/01 00:26:22;;;;;;;;;0.00;0.00;;;;;18.36;60.57;100580.38;2118680;27;46489;-72
2022/11/01 00:27:22;;;;;;;;;0.00;0.00;;;;;18.35;60.22;100586.72;2117792;27;46362;-72
2022/11/01 00:28:22;;;;;;;;;2.00;1.00;;;;;18.35;60.46;100589.41;2122788;27;45597;-71
2022/11/01 00:29:23;;;;;;;;;0.00;0.00;;;;;18.35;60.40;100589.41;2103686;28;46266;-72
2022/11/01 00:30:23;;;;;;;;;0.00;0.00;;;;;18.35;60.19;100592.09;2105128;28;46937;-71
2022/11/01 00:31:24;;;;;;;;;0.00;0.00;;;;;18.35;60.03;100584.03;2122374;27;46898;-72
2022/11/01 00:32:24;;;;;;;;;0.00;0.00;;;;;18.35;59.99;100599.28;2116359;27;46482;-73
2022/11/01 00:33:25;;;;;;;;;0.00;0.00;;;;;18.35;60.09;100600.16;2115746;27;46378;-73
2022/11/01 00:34:25;;;;;;;;;0.00;0.00;;;;;18.34;59.77;100605.59;2120843;27;46684;-72
2022/11/01 00:35:25;;;;;;;;;0.00;0.00;;;;;18.32;59.69;100607.50;2119151;27;46695;-72
2022/11/01 00:36:26;;;;;;;;;0.67;0.67;;;;;18.33;60.37;100609.25;2122780;27;45726;-72
2022/11/01 00:37:29;;;;;;;;;0.00;0.00;;;;;18.34;59.73;100603.78;2123090;27;46410;-72
2022/11/01 00:38:30;;;;;;;;;0.00;0.00;;;;;18.34;59.87;100617.22;2118931;27;46756;-71
2022/11/01 00:39:30;;;;;;;;;0.00;0.00;;;;;18.33;59.77;100615.50;2122835;27;46606;-70
2022/11/01 00:40:31;;;;;;;;;0.33;0.33;;;;;18.32;59.58;100621.81;2122668;27;46319;-72
2022/11/01 00:41:32;;;;;;;;;0.00;0.00;;;;;18.30;59.52;100618.34;2120653;27;46200;-72
2022/11/01 00:42:33;;;;;;;;;1.50;0.00;;;;;18.28;59.13;100614.00;2114294;27;46666;-71
2022/11/01 00:43:34;;;;;;;;;0.00;0.00;;;;;18.26;59.28;100618.59;2120532;27;45405;-72
2022/11/01 00:44:34;;;;;;;;;0.00;0.00;;;;;18.23;59.35;100628.56;2122424;27;46696;-73
2022/11/01 00:45:35;;;;;;;;;0.00;0.00;;;;;18.23;58.56;100625.00;2122651;27;47151;-71
2022/11/01 00:46:35;;;;;;;;;0.00;0.00;;;;;18.20;59.00;100625.19;2121651;27;46875;-73
2022/11/01 00:47:36;;;;;;;;;0.00;0.00;;;;;18.18;59.23;100627.09;2123196;27;46451;-72
2022/11/01 00:48:36;;;;;;;;;0.00;0.00;;;;;18.17;59.47;100639.66;2122786;27;46758;-71
2022/11/01 00:49:36;;;;;;;;;0.00;0.00;;;;;18.14;59.24;100634.41;2121273;27;46709;-71
2022/11/01 00:50:37;;;;;;;;;1.00;0.67;;;;;18.12;59.22;100639.00;2123088;27;45125;-72
2022/11/01 00:51:37;;;;;;;;;0.00;0.00;;;;;18.09;58.76;100638.31;2121303;27;46742;-73
2022/11/01 00:52:38;;;;;;;;;0.00;0.00;;;;;18.06;58.86;100643.84;2115245;27;45209;-72
2022/11/01 00:53:38;;;;;;;;;0.00;0.00;;;;;18.01;58.46;100641.41;2120798;27;45464;-71
2022/11/01 00:54:38;;;;;;;;;0.00;0.00;;;;;17.98;58.20;100656.81;2108154;27;46386;-71
2022/11/01 00:55:39;;;;;;;;;0.00;0.00;;;;;17.93;58.29;100644.50;2113505;27;46174;-70
2022/11/01 00:56:40;;;;;;;;;0.00;0.00;;;;;17.89;58.08;100659.03;2116731;27;45459;-72
2022/11/01 00:57:42;;;;;;;;;0.00;0.00;;;;;17.85;58.04;100667.34;2122839;27;46144;-71
2022/11/01 00:58:43;;;;;;;;;0.25;0.00;;;;;17.82;58.26;100659.44;2122470;27;47250;-71
2022/11/01 00:59:43;;;;;;;;;0.00;0.00;;;;;17.78;58.21;100647.97;2122217;27;46342;-72
2022/11/01 01:00:43;;;;;;;;;0.00;0.00;;;;;17.75;57.71;100658.88;2114300;27;46771;-72
2022/11/01 01:01:44;;;;;;;;;2.00;0.00;;;;;17.72;58.07;100668.94;2116640;27;45104;-71
2022/11/01 01:02:44;;;;;;;;;0.00;0.00;;;;;17.69;58.16;100666.41;2105559;27;46844;-71
2022/11/01 01:03:44;;;;;;;;;0.00;0.00;;;;;17.67;57.96;100668.28;2107973;27;45717;-73
2022/11/01 01:04:45;;;;;;;;;1.67;0.33;;;;;17.66;58.05;100667.41;2122366;27;46847;-71
2022/11/01 01:05:48;;;;;;;;;0.00;0.00;;;;;17.65;58.06;100671.00;2121855;27;46529;-70
2022/11/01 01:06:48;;;;;;;;;0.00;0.00;;;;;17.64;58.06;100674.63;2122144;27;46516;-70
2022/11/01 01:07:48;;;;;;;;;0.00;0.00;;;;;17.63;58.03;100675.59;2114120;27;46619;-72
2022/11/01 01:08:49;;;;;;;;;0.00;0.00;;;;;17.61;57.98;100669.44;2118354;27;45396;-71
2022/11/01 01:09:49;;;;;;;;;0.00;0.00;;;;;17.60;57.59;100673.06;2121595;27;45917;-71
2022/11/01 01:10:50;;;;;;;;;0.00;0.00;;;;;17.58;57.88;100677.66;2116653;27;46659;-74
2022/11/01 01:11:50;;;;;;;;;0.00;0.00;;;;;17.56;57.84;100684.91;2117515;27;46173;-73
2022/11/01 01:12:50;;;;;;;;;0.00;0.00;;;;;17.53;57.65;100685.06;2105236;28;46367;-72
2022/11/01 01:13:51;;;;;;;;;1.33;0.00;;;;;17.51;57.64;100689.63;2108639;27;46693;-73
2022/11/01 01:14:51;;;;;;;;;0.00;0.00;;;;;17.49;57.39;100688.84;2118253;27;45497;-71
2022/11/01 01:15:51;;;;;;;;;0.00;0.00;;;;;17.47;57.74;100686.25;2118172;27;45575;-72
2022/11/01 01:16:52;;;;;;;;;0.00;0.00;;;;;17.47;57.60;100688.06;2108845;27;46401;-73
2022/11/01 01:17:52;;;;;;;;;0.00;0.00;;;;;17.44;56.94;100685.53;2105354;27;45630;-72
2022/11/01 01:18:52;;;;;;;;;0.00;0.00;;;;;17.43;57.46;100692.72;2114097;27;46088;-71
2022/11/01 01:19:53;;;;;;;;;0.00;0.00;;;;;17.42;56.94;100693.69;2116615;27;46227;-72
2022/11/01 01:21:03;;;;;;;;;0.00;0.00;;;;;17.42;57.46;100700.84;2116390;27;46582;-72
2022/11/01 01:22:03;;;;;;;;;0.00;0.00;;;;;17.39;57.54;100698.31;2115271;27;46842;-71
2022/11/01 01:23:04;;;;;;;;;0.00;0.00;;;;;17.38;57.71;100705.47;2115490;27;45619;-72
2022/11/01 01:24:04;;;;;;;;;0.00;0.00;;;;;17.37;57.25;100709.13;2120973;27;46700;-71
2022/11/01 01:25:05;;;;;;;;;0.00;0.00;;;;;17.35;57.63;100694.91;2115014;27;46295;-71
2022/11/01 01:26:09;;;;;;;;;0.00;0.00;;;;;17.34;57.42;100704.78;2117542;27;46280;-71
2022/11/01 01:27:11;;;;;;;;;0.00;0.00;;;;;17.33;57.47;100703.03;2114087;27;46406;-70
2022/11/01 01:28:11;;;;;;;;;0.00;0.00;;;;;17.32;57.31;100713.84;2117837;27;46923;-70
2022/11/01 01:29:12;;;;;;;;;0.33;0.00;;;;;17.31;57.63;100702.25;2116882;27;45666;-71
2022/11/01 01:30:12;;;;;;;;;0.00;0.00;;;;;17.29;56.93;100698.78;2121914;27;46384;-72
2022/11/01 01:31:12;;;;;;;;;0.00;0.00;;;;;17.28;57.30;100709.59;2120495;27;46802;-71
2022/11/01 01:32:18;;;;;;;;;0.00;0.00;;;;;17.27;57.21;100719.41;2122317;27;46843;-72
2022/11/01 01:33:18;;;;;;;;;0.00;0.00;;;;;17.25;57.25;100713.28;2122510;27;46370;-71
2022/11/01 01:34:19;;;;;;;;;1.00;0.00;;;;;17.23;57.64;100706.25;2117272;27;46751;-71
2022/11/01 01:35:19;;;;;;;;;0.00;0.00;;;;;17.20;57.39;100712.63;2122965;27;45624;-72
2022/11/01 01:36:19;;;;;;;;;0.00;0.00;;;;;17.18;57.59;100703.81;2120711;27;46491;-72
2022/11/01 01:37:20;;;;;;;;;0.00;0.00;;;;;17.17;57.36;100712.78;2118686;27;46581;-70
2022/11/01 01:38:20;;;;;;;;;0.00;0.00;;;;;17.15;57.06;100716.47;2113469;27;46336;-71
2022/11/01 01:39:20;;;;;;;;;0.00;0.00;;;;;17.13;57.75;100716.56;2117857;27;46438;-73
2022/11/01 01:40:21;;;;;;;;;0.00;0.00;;;;;17.10;57.75;100716.72;2122405;27;46715;-72
2022/11/01 01:42:41;;;;;;;;;1.00;0.00;;;;;17.07;57.72;100727.59;2118085;27;46795;-70
2022/11/01 01:43:43;;;;;;;;;0.00;0.00;;;;;17.05;57.73;100730.34;2121305;27;45653;-72
2022/11/01 01:44:48;;;;;;;;;0.00;0.00;;;;;17.04;57.82;100736.66;2116611;27;46747;-71
2022/11/01 01:45:49;;;;;;;;;0.25;0.25;;;;;17.05;57.71;100738.38;2118694;27;46461;-72
2022/11/01 01:46:49;;;;;;;;;0.67;0.33;;;;;17.04;57.48;100728.63;2119750;27;46637;-70
2022/11/01 01:47:52;;;;;;;;;0.00;0.00;;;;;17.02;57.49;100737.66;2110760;27;46512;-71
2022/11/01 01:48:57;;;;;;;;;0.75;0.00;;;;;17.01;57.69;100730.53;2109045;27;46983;-71
2022/11/01 01:50:07;;;;;;;;;0.75;0.00;;;;;16.97;57.32;100737.88;2117351;27;46500;-73
2022/11/01 01:51:13;;;;;;;;;0.75;0.75;;;;;16.97;57.23;100739.69;2114216;27;45416;-72
2022/11/01 01:52:14;;;;;;;;;0.25;0.25;;;;;16.96;57.37;100756.72;2117719;27;46802;-72
2022/11/01 01:53:35;;;;;;;;;0.00;0.00;;;;;16.94;57.46;100745.22;2118086;27;46247;-71
2022/11/01 01:54:36;;;;;;;;;0.00;0.00;;;;;16.94;57.41;100751.44;2113408;27;46877;-72
2022/11/01 01:55:52;;;;;;;;;2.25;1.00;;;;;16.94;57.42;100743.41;2117639;27;46597;-72
2022/11/01 01:56:52;;;;;;;;;0.75;0.50;;;;;16.93;57.39;100740.78;2117003;27;46708;-71
2022/11/01 01:57:56;;;;;;;;;1.33;0.00;;;;;16.93;57.29;100747.03;2113611;27;46462;-71
2022/11/01 01:59:09;;;;;;;;;0.00;0.00;;;;;16.94;57.18;100750.56;2116432;27;46450;-71
2022/11/01 02:00:10;;;;;;;;;0.00;0.00;;;;;16.93;57.52;100748.84;2117980;27;47377;-71
2022/11/01 02:01:11;;;;;;;;;1.75;1.50;;;;;16.90;56.55;100763.25;2105220;27;46752;-72
2022/11/01 02:02:12;;;;;;;;;0.33;0.00;;;;;16.88;57.01;100745.47;2106817;27;47047;-72
2022/11/01 02:03:14;;;;;;;;;0.00;0.00;;;;;16.85;56.70;100759.03;2122145;27;45956;-73
2022/11/01 02:04:23;;;;;;;;;1.00;0.00;;;;;16.83;57.17;100760.91;2121743;27;46132;-72
2022/11/01 02:05:37;;;;;;;;;1.50;0.50;;;;;16.81;56.80;100761.00;2116152;27;45829;-72
2022/11/01 02:06:39;;;;;;;;;2.00;0.75;;;;;16.82;57.06;100776.13;2113470;27;46826;-72
2022/11/01 02:07:39;;;;;;;;;0.75;0.00;;;;;16.81;56.87;100776.22;2118705;27;47193;-74
2022/11/01 02:08:46;;;;;;;;;2.00;0.33;;;;;16.80;56.98;100771.78;2121241;27;46824;-72
2022/11/01 02:09:46;;;;;;;;;0.00;0.00;;;;;16.77;56.69;100765.63;2113153;27;46305;-73
2022/11/01 02:10:47;;;;;;;;;0.00;0.00;;;;;16.77;57.13;100764.78;2115967;27;46423;-73
2022/11/01 02:11:48;;;;;;;;;0.00;0.00;;;;;16.76;56.90;100774.59;2119957;27;46512;-71
2022/11/01 02:12:49;;;;;;;;;1.00;1.00;;;;;16.77;56.84;100770.13;2114430;27;46741;-73
2022/11/01 02:13:49;;;;;;;;;0.00;0.00;;;;;16.77;57.02;100772.81;2119798;27;46541;-71
2022/11/01 02:14:50;;;;;;;;;0.00;0.00;;;;;16.75;56.72;100778.22;2113621;27;46520;-72
2022/11/01 02:16:08;;;;;;;;;0.67;0.67;;;;;16.76;56.72;100776.41;2116310;27;46715;-71
2022/11/01 02:17:21;;;;;;;;;0.00;0.00;;;;;16.75;56.35;100778.22;2117655;27;46418;-74
2022/11/01 02:18:34;;;;;;;;;0.00;0.00;;;;;16.75;56.87;100786.25;2119721;27;46657;-73
2022/11/01 02:19:56;;;;;;;;;0.00;0.00;;;;;16.73;56.85;100784.59;2119194;27;46827;-73
2022/11/01 02:21:04;;;;;;;;;0.25;0.25;;;;;16.70;56.58;100779.38;2116040;27;46369;-72
2022/11/01 02:22:10;;;;;;;;;0.50;0.50;;;;;16.68;56.76;100789.31;2116941;27;46687;-71
2022/11/01 02:23:29;;;;;;;;;0.25;0.25;;;;;16.66;57.03;100783.97;2117595;27;46365;-71
2022/11/01 02:24:32;;;;;;;;;0.00;0.00;;;;;16.63;56.88;100794.81;2118083;27;46673;-71
2022/11/01 02:25:57;;;;;;;;;0.00;0.00;;;;;16.62;56.41;100789.53;2113624;27;46456;-71
2022/11/01 02:27:13;;;;;;;;;0.50;0.00;;;;;16.60;56.60;100792.28;2118054;27;46649;-70
2022/11/01 02:28:13;;;;;;;;;0.00;0.00;;;;;16.60;56.80;100792.28;2112960;27;46507;-71
2022/11/01 02:29:22;;;;;;;;;0.00;0.00;;;;;16.61;56.61;100790.47;2114901;27;46750;-71
2022/11/01 02:30:24;;;;;;;;;0.00;0.00;;;;;16.60;56.85;100792.28;2121207;27;45341;-72
2022/11/01 02:31:25;;;;;;;;;0.25;0.00;;;;;16.60;57.22;100788.75;2119780;27;45587;-73
2022/11/01 02:32:37;;;;;;;;;0.33;0.00;;;;;16.61;56.77;100787.78;2118358;27;46772;-73
2022/11/01 02:33:47;;;;;;;;;0.50;0.00;;;;;16.63;57.13;100802.84;2119741;27;46999;-71
2022/11/01 02:34:56;;;;;;;;;0.00;0.00;;;;;16.62;57.07;100806.47;2117930;27;46736;-72
2022/11/01 02:36:40;;;;;;;;;1.00;0.00;;;;;16.61;56.70;100804.75;2114024;27;45901;-70
2022/11/01 02:37:47;;;;;;;;;0.00;0.00;;;;;16.59;56.67;100817.34;2087597;28;46512;-72
2022/11/01 02:38:56;;;;;;;;;0.00;0.00;;;;;16.58;56.66;100807.56;2090337;28;45673;-71
2022/11/01 02:40:06;;;;;;;;;0.00;0.00;;;;;16.56;56.90;100813.94;2092260;28;46254;-74
2022/11/01 02:41:16;;;;;;;;;0.75;0.75;;;;;16.54;56.88;100830.09;2095715;28;46066;-73
2022/11/01 02:42:23;;;;;;;;;0.25;0.25;;;;;16.52;57.38;100818.56;2095388;28;46319;-71
2022/11/01 02:43:52;;;;;;;;;0.00;0.00;;;;;16.51;57.10;100823.97;2091763;28;45455;-71
2022/11/01 02:45:05;;;;;;;;;1.00;0.00;;;;;16.51;56.91;100829.31;2073879;28;46030;-72
2022/11/01 02:47:37;;;;;;;;;1.75;0.75;;;;;16.48;57.19;100835.69;2070370;28;46603;-72
2022/11/01 02:48:37;;;;;;;;;1.50;1.50;;;;;16.46;57.46;100840.25;2070707;28;45761;-72
2022/11/01 02:49:47;;;;;;;;;0.00;0.00;;;;;16.43;57.32;100835.91;2071291;28;45437;-72
2022/11/01 02:50:54;;;;;;;;;0.00;0.00;;;;;16.41;56.94;100835.13;2078802;28;46832;-71
2022/11/01 02:51:58;;;;;;;;;1.25;0.00;;;;;16.38;56.92;100835.22;2076159;28;47251;-71
2022/11/01 02:52:59;;;;;;;;;0.50;0.25;;;;;16.36;57.04;100838.91;2070580;28;46103;-71
2022/11/01 02:54:04;;;;;;;;;0.00;0.00;;;;;16.36;56.74;100847.81;2075586;28;45890;-71
2022/11/01 02:55:28;;;;;;;;;0.00;0.00;;;;;16.33;56.89;100845.28;2072751;28;46851;-71
2022/11/01 02:56:29;;;;;;;;;0.00;0.00;;;;;16.31;56.67;100847.16;2074190;28;46960;-73
2022/11/01 02:57:36;;;;;;;;;0.00;0.00;;;;;16.30;56.48;100847.22;2076003;28;46265;-72
2022/11/01 02:58:38;;;;;;;;;0.00;0.00;;;;;16.29;56.65;100846.34;2063611;28;46872;-72
2022/11/01 02:59:46;;;;;;;;;0.75;0.25;;;;;16.27;56.84;100850.91;2072459;28;46374;-73
2022/11/01 03:00:47;;;;;;;;;0.00;0.00;;;;;16.25;56.32;100855.44;2066563;28;46408;-74
2022/11/01 03:02:04;;;;;;;;;0.67;0.33;;;;;16.22;56.43;100850.22;2070688;28;46821;-72
2022/11/01 03:03:25;;;;;;;;;0.00;0.00;;;;;16.19;56.62;100856.59;2072855;28;46383;-72
2022/11/01 03:04:25;;;;;;;;;0.00;0.00;;;;;16.19;56.79;100871.78;2073619;28;46826;-71
2022/11/01 03:05:35;;;;;;;;;0.00;0.00;;;;;16.19;56.22;100871.78;2071099;28;46367;-72
2022/11/01 03:06:41;;;;;;;;;1.00;0.25;;;;;16.18;56.38;100873.59;2063005;28;45296;-72
2022/11/01 03:07:47;;;;;;;;;0.00;0.00;;;;;16.18;56.26;100868.25;2069687;28;45657;-75
2022/11/01 03:08:53;;;;;;;;;0.75;0.00;;;;;16.17;56.48;100866.50;2071106;28;46448;-72
2022/11/01 03:09:54;;;;;;;;;0.50;0.00;;;;;16.15;56.41;100879.09;2070849;28;45720;-72
2022/11/01 03:11:12;;;;;;;;;0.67;0.67;;;;;16.13;56.52;100878.28;2071123;28;46129;-71
2022/11/01 03:12:24;;;;;;;;;1.00;0.75;;;;;16.12;56.92;100881.88;2070710;28;46784;-71
2022/11/01 03:13:33;;;;;;;;;1.50;0.50;;;;;16.09;56.86;100876.66;2068084;28;46117;-71
2022/11/01 03:14:59;;;;;;;;;0.00;0.00;;;;;16.08;56.86;100884.75;2061595;28;45895;-72
2022/11/01 03:16:25;;;;;;;;;0.00;0.00;;;;;16.05;57.09;100875.03;2074072;28;46116;-72
2022/11/01 03:18:03;;;;;;;;;1.00;0.00;;;;;16.04;56.76;100885.81;2058702;28;46457;-72
2022/11/01 03:19:17;;;;;;;;;1.00;0.00;;;;;16.03;56.76;100887.63;2056717;28;46046;-73
2022/11/01 03:20:24;;;;;;;;;0.75;0.75;;;;;16.02;57.07;100888.56;2054420;28;46914;-71
2022/11/01 03:21:29;;;;;;;;;1.25;1.00;;;;;16.01;56.91;100892.19;2054337;28;45703;-72
2022/11/01 03:22:42;;;;;;;;;0.00;0.00;;;;;16.00;56.83;100898.44;2058284;28;46311;-71
2022/11/01 03:23:50;;;;;;;;;1.50;0.00;;;;;15.99;56.90;100894.03;2062015;28;45749;-73
2022/11/01 03:25:00;;;;;;;;;0.00;0.00;;;;;15.97;57.35;100898.56;2062065;28;46425;-71
2022/11/01 03:26:07;;;;;;;;;0.00;0.00;;;;;15.96;56.82;100896.84;2062272;28;45530;-72
2022/11/01 03:27:16;;;;;;;;;1.00;1.00;;;;;15.96;56.85;100898.63;2069386;28;46613;-71
2022/11/01 03:28:22;;;;;;;;;0.75;0.25;;;;;15.95;57.35;100902.25;2070830;28;46214;-72
2022/11/01 03:29:27;;;;;;;;;0.00;0.00;;;;;15.96;57.16;100901.31;2077154;28;46057;-69
2022/11/01 03:30:30;;;;;;;;;0.00;0.00;;;;;15.95;57.51;100907.59;2070218;28;46382;-71
2022/11/01 03:31:35;;;;;;;;;0.00;0.00;;;;;15.92;57.08;100903.25;2075839;28;46301;-73
2022/11/01 03:32:51;;;;;;;;;0.75;0.75;;;;;15.92;57.52;100916.63;2071868;28;46895;-71
2022/11/01 03:33:55;;;;;;;;;1.25;0.50;;;;;15.93;57.43;100920.19;2065914;28;45741;-73
2022/11/01 03:34:58;;;;;;;;;0.25;0.25;;;;;15.93;57.07;100909.47;2076245;28;46262;-73
2022/11/01 03:36:02;;;;;;;;;1.50;0.00;;;;;15.93;57.04;100912.16;2070782;28;46360;-73
2022/11/01 03:37:08;;;;;;;;;1.25;0.00;;;;;15.93;57.40;100910.34;2074785;28;45693;-72
2022/11/01 03:38:14;;;;;;;;;0.25;0.25;;;;;15.94;57.34;100928.16;2074332;28;46679;-71
2022/11/01 03:39:21;;;;;;;;;0.75;0.75;;;;;15.95;57.52;100923.66;2070322;28;46954;-72
2022/11/01 03:40:25;;;;;;;;;1.50;1.00;;;;;15.97;57.64;100921.78;2078753;28;46791;-71
2022/11/01 03:41:27;;;;;;;;;2.00;1.00;;;;;15.99;57.37;100919.91;2076605;28;45212;-73
2022/11/01 03:42:29;;;;;;;;;3.50;1.75;;;;;16.00;57.25;100930.56;2078422;28;46032;-73
2022/11/01 03:43:33;;;;;;;;;1.00;1.00;;;;;16.03;57.72;100927.78;2075309;28;45906;-72
2022/11/01 03:44:57;;;;;;;;;0.00;0.00;;;;;16.04;57.32;100937.56;2075306;28;45821;-70
2022/11/01 03:45:57;;;;;;;;;1.25;0.25;;;;;16.04;57.46;100939.34;2066780;28;46576;-72
2022/11/01 03:46:58;;;;;;;;;1.00;0.00;;;;;16.03;57.54;100941.16;2074045;28;46726;-71
2022/11/01 03:48:00;;;;;;;;;0.00;0.00;;;;;16.03;57.50;100940.31;2073285;28;45522;-71
2022/11/01 03:49:00;;;;;;;;;0.50;0.50;;;;;16.01;57.23;100937.69;2071654;28;45750;-71
2022/11/01 03:50:14;;;;;;;;;1.00;1.00;;;;;16.02;57.36;100942.09;2072984;28;45535;-72
2022/11/01 03:51:15;;;;;;;;;0.75;0.75;;;;;16.02;57.44;100935.88;2071732;28;46594;-72
2022/11/01 03:52:15;;;;;;;;;3.00;1.33;;;;;16.01;57.32;100935.00;2071984;28;46048;-73
2022/11/01 03:53:16;;;;;;;;;1.00;1.00;;;;;16.00;57.61;100938.59;2071984;28;46437;-74
2022/11/01 03:54:16;;;;;;;;;0.00;0.00;;;;;16.00;57.29;100924.34;2071933;28;46799;-71
2022/11/01 03:55:18;;;;;;;;;0.00;0.00;;;;;15.99;57.16;100938.66;2093134;28;45945;-72
2022/11/01 03:56:18;;;;;;;;;2.00;0.00;;;;;15.97;57.35;100930.69;2103934;27;46794;-72
2022/11/01 03:57:19;;;;;;;;;1.00;1.00;;;;;15.97;57.34;100949.44;2103196;28;45706;-71
2022/11/01 03:58:19;;;;;;;;;0.67;0.67;;;;;15.96;57.36;100950.38;2105830;28;45456;-72
2022/11/01 03:59:19;;;;;;;;;0.00;0.00;;;;;15.95;57.83;100951.31;2105109;28;46205;-72
2022/11/01 04:00:28;;;;;;;;;1.33;0.33;;;;;15.94;57.42;100952.25;2105939;27;45789;-71
2022/11/01 04:01:29;;;;;;;;;1.00;1.00;;;;;15.93;57.50;100953.16;2097460;28;47218;-72
2022/11/01 04:02:29;;;;;;;;;1.00;1.00;;;;;15.93;57.44;100955.84;2105224;28;46634;-72
2022/11/01 04:03:29;;;;;;;;;0.00;0.00;;;;;15.93;57.42;100955.84;2105106;27;47025;-70
2022/11/01 04:04:30;;;;;;;;;2.00;0.00;;;;;15.94;57.43;100972.78;2105855;27;46043;-72
2022/11/01 04:05:32;;;;;;;;;0.33;0.33;;;;;15.93;57.58;100966.56;2104834;27;46670;-72
2022/11/01 04:06:32;;;;;;;;;0.00;0.00;;;;;15.93;57.27;100968.38;2105217;27;45867;-71
2022/11/01 04:07:32;;;;;;;;;1.00;1.00;;;;;15.91;57.86;100971.09;2106035;27;46604;-71
2022/11/01 04:08:33;;;;;;;;;3.00;2.00;;;;;15.90;57.53;100972.03;2105021;27;46725;-71
2022/11/01 04:09:34;;;;;;;;;0.50;0.00;;;;;15.89;57.54;100967.63;2105131;27;47200;-73
2022/11/01 04:10:34;;;;;;;;;1.33;1.00;;;;;15.88;57.33;100971.22;2105816;28;47646;-73
2022/11/01 04:11:34;;;;;;;;;1.00;1.00;;;;;15.88;57.48;100974.78;2106098;27;45984;-72
2022/11/01 04:12:35;;;;;;;;;1.00;1.00;;;;;15.88;57.40;100976.59;2100565;28;46589;-72
2022/11/01 04:13:35;;;;;;;;;1.00;1.00;;;;;15.91;57.53;100984.47;2099111;28;46590;-74
2022/11/01 04:21:32;;;;;;;;;1.25;1.00;;;;;15.84;57.59;100991.88;2106072;28;46091;-73
2022/11/01 04:22:34;;;;;;;;;0.33;0.33;;;;;15.83;57.64;100999.97;2105215;27;45254;-71
2022/11/01 04:23:35;;;;;;;;;1.00;0.25;;;;;15.82;57.46;101009.78;2106905;27;45708;-71
2022/11/01 04:24:35;;;;;;;;;0.00;0.00;;;;;15.82;57.67;101004.44;2104915;28;46519;-72
2022/11/01 04:25:36;;;;;;;;;1.33;1.33;;;;;15.81;57.82;101004.50;2105809;27;47054;-72
2022/11/01 04:26:36;;;;;;;;;1.00;0.67;;;;;15.81;57.94;101012.53;2109103;27;46649;-72
2022/11/01 04:27:37;;;;;;;;;1.33;0.33;;;;;15.81;57.49;101012.53;2107351;27;45877;-71
2022/11/01 04:28:37;;;;;;;;;0.67;0.67;;;;;15.82;57.40;101017.81;2095719;28;46758;-71
2022/11/01 04:29:37;;;;;;;;;1.33;1.33;;;;;15.84;57.44;101023.09;2095949;28;45993;-71
2022/11/01 04:30:38;;;;;;;;;1.00;1.00;;;;;15.84;57.45;101023.09;2104954;28;46272;-73
2022/11/01 04:31:38;;;;;;;;;0.33;0.33;;;;;15.85;57.52;101038.22;2102930;28;46478;-73
2022/11/01 04:32:43;;;;;;;;;1.00;0.00;;;;;15.86;57.32;101023.91;2105807;27;46294;-73
2022/11/01 04:33:43;;;;;;;;;0.50;0.50;;;;;15.84;57.81;101032.00;2105332;28;46801;-72
2022/11/01 04:34:43;;;;;;;;;0.00;0.00;;;;;15.84;57.23;101032.00;2107268;27;46590;-72
2022/11/01 04:35:44;;;;;;;;;1.33;1.00;;;;;15.83;57.32;101035.63;2106065;27;46901;-74
2022/11/01 04:36:44;;;;;;;;;2.00;1.00;;;;;15.84;57.48;101039.16;2105559;27;46760;-71
2022/11/01 04:37:45;;;;;;;;;0.67;0.67;;;;;15.84;57.63;101041.84;2105407;27;46465;-73
2022/11/01 04:38:50;;;;;;;;;0.25;0.25;;;;;15.86;57.26;101045.31;2109198;27;46414;-74
2022/11/01 04:39:51;;;;;;;;;1.75;1.75;;;;;15.87;57.74;101045.28;2118572;27;46791;-74
2022/11/01 04:40:51;;;;;;;;;1.00;1.00;;;;;15.88;57.19;101048.84;2122864;27;46581;-72
2022/11/01 04:41:51;;;;;;;;;1.00;1.00;;;;;15.90;57.74;101044.31;2116061;27;46491;-72
2022/11/01 04:42:52;;;;;;;;;4.00;1.67;;;;;15.89;57.17;101042.56;2117788;27;46022;-74
2022/11/01 04:43:55;;;;;;;;;1.00;0.00;;;;;15.90;57.43;101044.31;2114286;27;46651;-72
2022/11/01 04:44:55;;;;;;;;;2.25;0.25;;;;;15.90;57.21;101049.66;2121997;27;45518;-73
2022/11/01 04:45:56;;;;;;;;;1.33;1.00;;;;;15.89;56.93;101062.16;2122965;27;46292;-72
2022/11/01 04:46:56;;;;;;;;;2.00;0.67;;;;;15.89;57.28;101053.25;2122630;27;46846;-72
2022/11/01 04:48:06;;;;;;;;;1.00;0.67;;;;;15.88;57.17;101052.41;2122632;27;46353;-70
2022/11/01 04:49:06;;;;;;;;;2.25;1.00;;;;;15.88;57.27;101054.19;2122433;27;46197;-71
2022/11/01 04:50:07;;;;;;;;;0.00;0.00;;;;;15.89;56.96;101050.59;2122584;27;46477;-71
2022/11/01 04:51:08;;;;;;;;;0.33;0.33;;;;;15.88;57.18;101049.72;2122900;27;46406;-70
2022/11/01 04:52:08;;;;;;;;;1.25;0.25;;;;;15.90;57.06;101055.00;2117995;27;45736;-70
2022/11/01 04:53:09;;;;;;;;;1.00;0.33;;;;;15.89;57.17;101056.81;2114807;27;46365;-71
2022/11/01 04:54:09;;;;;;;;;1.33;0.33;;;;;15.90;57.10;101049.66;2120211;27;46423;-71
2022/11/01 04:55:10;;;;;;;;;2.33;1.67;;;;;15.89;57.15;101058.63;2122498;27;46478;-73
2022/11/01 04:56:12;;;;;;;;;1.00;1.00;;;;;15.89;56.99;101056.81;2122527;27;46751;-72
2022/11/01 04:57:22;;;;;;;;;1.00;1.00;;;;;15.88;57.07;101060.44;2120639;27;46363;-73
2022/11/01 04:58:22;;;;;;;;;1.00;0.75;;;;;15.88;57.22;101060.44;2122724;27;46181;-70
2022/11/01 04:59:22;;;;;;;;;0.00;0.00;;;;;15.89;57.27;101061.28;2119682;27;46630;-71
2022/11/01 05:00:24;;;;;;;;;1.00;1.00;;;;;15.89;57.29;101056.81;2117395;27;45646;-71
2022/11/01 05:01:25;;;;;;;;;0.25;0.25;;;;;15.89;57.27;101064.84;2122584;27;46642;-71
2022/11/01 05:02:25;;;;;;;;;1.67;1.67;;;;;15.89;57.60;101067.53;2122375;27;46265;-72
2022/11/01 05:03:25;;;;;;;;;1.00;0.67;;;;;15.90;57.26;101068.41;2122485;27;46247;-72
2022/11/01 05:04:25;;;;;;;;;2.00;0.33;;;;;15.91;57.65;101069.25;2122205;27;46947;-72
2022/11/01 05:05:26;;;;;;;;;1.00;0.00;;;;;15.92;57.59;101071.88;2120214;27;46743;-72
2022/11/01 05:06:27;;;;;;;;;2.00;1.00;;;;;15.92;57.21;101069.19;2122620;27;45958;-72